Flight Track Log - Related Links

Times and Time Zones

All times are in EDT time to prevent confusion due to time zone crossing. See the UAL4604 flight status page for this flight to view local times or setup timezone preferences in your user account.


Time Position Orientation Groundspeed Altitude Reporting Facility
EDT Latitude Longitude Course Direction KTS MPH feet Rate Location/Type
Tue 05:15:01 PM 37.5503 -77.4228 286° West 194 223 4,000  Level Washington Center
Tue 05:16:00 PM 37.4099 -77.6709 257° West  Level FlightAware Approximate
Tue 05:16:02 PM 37.5219 -77.5058 247° West 215 247 5,900  Level Washington Center
Tue 05:17:00 PM 37.3877 -77.7927 257° West  Level FlightAware Approximate
Tue 05:17:02 PM 37.4892 -77.5967 246° West 253 291 9,100  Level Washington Center
Tue 05:18:00 PM 37.3619 -77.9133 254° West  Level FlightAware Approximate
Tue 05:18:03 PM 37.4583 -77.6900 247° West 280 322 10,700  Level Washington Center
Tue 05:19:00 PM 37.3454 -78.0353 253° West  Level FlightAware Approximate
Tue 05:19:01 PM 37.4231 -77.7964 247° West 314 361 11,600  Level Washington Center
Tue 05:20:02 PM 37.3789 -77.9181 245° Southwest 342 394 12,800 1,377 Climbing Washington Center
Tue 05:21:03 PM 37.3472 -78.0422 252° West 375 432 14,400 1,513 Climbing Washington Center
Tue 05:22:01 PM 37.3222 -78.1433 253° West 380 437 15,800 1,627 Climbing Washington Center
Tue 05:23:01 PM 37.2964 -78.2783 257° West 380 437 17,600 1,488 Climbing Washington Center
Tue 05:24:02 PM 37.2808 -78.4108 262° West 374 430 18,800 1,388 Climbing Washington Center
Tue 05:25:02 PM 37.2772 -78.5569 268° West 379 436 20,400 1,488 Climbing Washington Center
Tue 05:26:03 PM 37.2717 -78.6950 267° West 389 448 21,800 1,328 Climbing Washington Center
Tue 05:27:04 PM 37.2681 -78.8281 268° West 389 448 23,100 1,373 Climbing Washington Center
Tue 05:28:01 PM 37.2622 -78.9686 267° West 394 453 24,500 1,424 Climbing Washington Center
Tue 05:29:02 PM 37.2586 -79.0911 268° West 394 453 25,900 1,339 Climbing Washington Center
Tue 05:30:02 PM 37.2528 -79.2239 267° West 394 453 27,200 1,289 Climbing Washington Center
Tue 05:31:03 PM 37.2381 -79.3589 262° West 394 453 28,500 1,289 Climbing Washington Center
Tue 05:32:03 PM 37.2233 -79.4911 262° West 389 448 29,800 1,322 Climbing Washington Center
Tue 05:33:01 PM 37.2106 -79.6236 263° West 389 448 31,100 1,109 Climbing Washington Center
Tue 05:34:02 PM 37.1936 -79.7531 261° West 384 442 32,000 333 Climbing Washington Center
Tue 05:35:43 PM 37.1675 -79.9889 262° West 397 457 32,000  Level Atlanta Center
Tue 05:36:43 PM 37.1517 -80.1406 263° West 419 482 32,000  Level Atlanta Center
Tue 05:37:43 PM 37.1333 -80.2925 261° West 439 505 32,000  Level Atlanta Center
Tue 05:38:43 PM 37.0797 -80.4461 246° West 445 512 32,000 -300 Level Atlanta Center
Tue 05:39:43 PM 36.9733 -80.5183 208° Southwest 409 471 31,400 -500 Descending Atlanta Center
Tue 05:40:43 PM 36.8844 -80.6158 221° Southwest 431 496 31,000 -200 Descending Atlanta Center
Tue 05:41:43 PM 36.8211 -80.7481 239° Southwest 426 490 31,000  Level Atlanta Center
Tue 05:42:43 PM 36.7681 -80.8644 240° Southwest 439 505 31,000  Level Atlanta Center
Tue 05:43:43 PM 36.7047 -81.0042 241° Southwest 434 499 31,000  Level Atlanta Center
Tue 05:44:43 PM 36.6414 -81.1386 240° Southwest 441 507 31,000 200 Level Atlanta Center
Tue 05:45:43 PM 36.5817 -81.2672 240° Southwest 446 513 31,400 400 Climbing Atlanta Center
Tue 05:46:43 PM 36.5200 -81.4011 240° Southwest 447 514 31,800 400 Climbing Atlanta Center
Tue 05:47:43 PM 36.4622 -81.5219 239° Southwest 452 520 32,200 400 Climbing Atlanta Center
Tue 05:48:43 PM 36.3981 -81.6553 239° Southwest 451 519 32,600 450 Climbing Atlanta Center
Tue 05:49:43 PM 36.3358 -81.7886 240° Southwest 451 519 33,100 500 Climbing Atlanta Center
Tue 05:50:43 PM 36.2611 -81.9300 237° Southwest 451 519 33,600 600 Climbing Atlanta Center
Tue 05:51:43 PM 36.2069 -82.0497 241° Southwest 451 519 34,300 700 Climbing Atlanta Center
Tue 05:52:43 PM 36.1442 -82.1772 239° Southwest 440 506 35,000 750 Climbing Atlanta Center
Tue 05:53:43 PM 36.0733 -82.3097 237° Southwest 440 506 35,800 500 Climbing Atlanta Center
Tue 05:54:43 PM 36.0122 -82.4344 239° Southwest 435 501 36,000 100 Climbing Atlanta Center
Tue 05:55:43 PM 35.9553 -82.5483 238° Southwest 435 501 36,000  Level Atlanta Center
Tue 05:56:43 PM 35.8942 -82.6750 239° Southwest 435 501 36,000  Level Atlanta Center
Tue 05:57:43 PM 35.8308 -82.7992 238° Southwest 435 501 36,000  Level Atlanta Center
Tue 05:58:43 PM 35.7694 -82.9228 239° Southwest 435 501 36,000  Level Atlanta Center
Tue 05:59:43 PM 35.7100 -83.0439 239° Southwest 428 493 36,000  Level Atlanta Center
Tue 06:00:43 PM 35.6506 -83.1647 239° Southwest 428 493 36,000  Level Atlanta Center
Tue 06:01:43 PM 35.5908 -83.2853 239° Southwest 406 467 36,000  Level Atlanta Center
Tue 06:02:43 PM 35.5331 -83.3983 238° Southwest 400 460 36,000  Level Atlanta Center
Tue 06:03:43 PM 35.4731 -83.5133 237° Southwest 400 460 36,000  Level Atlanta Center
Tue 06:04:43 PM 35.4172 -83.6283 239° Southwest 400 460 36,000  Level Atlanta Center
Tue 06:05:43 PM 35.3592 -83.7383 237° Southwest 400 460 36,000  Level Atlanta Center
Tue 06:06:43 PM 35.3008 -83.8478 237° Southwest 394 453 36,000  Level Atlanta Center
Tue 06:07:43 PM 35.2467 -83.9600 239° Southwest 394 453 36,000  Level Atlanta Center
Tue 06:08:43 PM 35.1906 -84.0667 237° Southwest 394 453 36,000  Level Atlanta Center
Tue 06:09:43 PM 35.1361 -84.1708 237° Southwest 389 448 36,000  Level Atlanta Center
Tue 06:10:43 PM 35.0797 -84.2800 238° Southwest 389 448 36,000  Level Atlanta Center
Tue 06:11:43 PM 35.0272 -84.3836 238° Southwest 378 435 36,000  Level Atlanta Center
Tue 06:12:43 PM 34.9789 -84.4797 238° Southwest 378 435 36,000  Level Atlanta Center
Tue 06:13:43 PM 34.9222 -84.5858 237° Southwest 378 435 36,000  Level Atlanta Center
Tue 06:14:43 PM 34.8675 -84.6894 237° Southwest 373 429 36,000  Level Atlanta Center
Tue 06:15:43 PM 34.8125 -84.7900 236° Southwest 373 429 36,000  Level Atlanta Center
Tue 06:16:43 PM 34.7575 -84.8933 237° Southwest 368 423 36,000  Level Atlanta Center
Tue 06:17:43 PM 34.7025 -84.9989 238° Southwest 368 423 36,000  Level Atlanta Center
Tue 06:18:43 PM 34.6558 -85.1019 241° Southwest 362 417 36,000  Level Atlanta Center
Tue 06:19:43 PM 34.5922 -85.2069 234° Southwest 369 425 36,000  Level Atlanta Center
Tue 06:20:43 PM 34.5369 -85.3122 238° Southwest 375 432 36,000  Level Atlanta Center
Tue 06:21:43 PM 34.4817 -85.4172 237° Southwest 375 432 36,000  Level Atlanta Center
Tue 06:22:43 PM 34.4239 -85.5244 237° Southwest 375 432 36,000  Level Atlanta Center
Tue 06:23:43 PM 34.3725 -85.6319 240° Southwest 375 432 36,000  Level Atlanta Center
Tue 06:24:43 PM 34.3169 -85.7339 237° Southwest 370 426 36,000  Level Atlanta Center
Tue 06:25:43 PM 34.2508 -85.8406 233° Southwest 370 426 36,000  Level Atlanta Center
Tue 06:26:43 PM 34.1950 -85.9425 237° Southwest 364 419 36,000  Level Atlanta Center
Tue 06:27:43 PM 34.1389 -86.0467 237° Southwest 370 426 36,000  Level Atlanta Center
Tue 06:28:43 PM 34.0808 -86.1506 236° Southwest 370 426 36,000  Level Atlanta Center
Tue 06:29:43 PM 34.0247 -86.2544 237° Southwest 370 426 36,000  Level Atlanta Center
Tue 06:30:43 PM 33.9667 -86.3581 236° Southwest 370 426 36,000  Level Atlanta Center
Tue 06:31:43 PM 33.9103 -86.4617 237° Southwest 370 426 36,000  Level Atlanta Center
Tue 06:32:43 PM 33.8519 -86.5653 236° Southwest 370 426 36,000  Level Atlanta Center
Tue 06:33:43 PM 33.7933 -86.6708 236° Southwest 370 426 36,000  Level Atlanta Center
Tue 06:34:43 PM 33.7367 -86.7742 237° Southwest 370 426 36,000  Level Atlanta Center
Tue 06:35:43 PM 33.6781 -86.8769 236° Southwest 370 426 36,000  Level Atlanta Center
Tue 06:36:43 PM 33.6336 -86.9903 245° Southwest 370 426 36,000  Level Atlanta Center
Tue 06:37:43 PM 33.5953 -87.1064 248° West 376 433 36,000  Level Atlanta Center
Tue 06:38:43 PM 33.5569 -87.2244 249° West 381 438 36,000  Level Atlanta Center
Tue 06:40:57 PM 33.4694 -87.4833 248° West 385 443 36,000  Level Memphis Center
Tue 06:41:57 PM 33.4283 -87.5994 247° West 380 437 36,000  Level Memphis Center
Tue 06:42:57 PM 33.3869 -87.7150 247° West 380 437 36,000  Level Memphis Center
Tue 06:43:57 PM 33.3475 -87.8281 247° West 380 437 36,000  Level Memphis Center
Tue 06:44:57 PM 33.3081 -87.9436 248° West 380 437 36,000  Level Memphis Center
Tue 06:45:57 PM 33.2686 -88.0589 248° West 380 437 36,000  Level Memphis Center
Tue 06:46:57 PM 33.2267 -88.1769 247° West 380 437 36,000  Level Memphis Center
Tue 06:47:57 PM 33.1911 -88.2894 249° West 375 432 36,000  Level Memphis Center
Tue 06:48:57 PM 33.1514 -88.4044 248° West 375 432 36,000  Level Memphis Center
Tue 06:49:57 PM 33.1114 -88.5194 247° West 375 432 36,000  Level Memphis Center
Tue 06:50:57 PM 33.0692 -88.6369 247° West 380 437 36,000  Level Memphis Center
Tue 06:51:57 PM 33.0269 -88.7542 247° West 385 443 36,000  Level Memphis Center
Tue 06:52:57 PM 32.9844 -88.8714 247° West 385 443 36,000  Level Memphis Center
Tue 06:53:57 PM 32.9419 -88.9858 246° West 380 437 36,000  Level Memphis Center
Tue 06:54:57 PM 32.8994 -89.1028 247° West 380 437 36,000  Level Memphis Center
Tue 06:55:57 PM 32.8567 -89.2247 247° West 385 443 36,000  Level Memphis Center
Tue 06:56:57 PM 32.8117 -89.3414 245° Southwest 390 449 36,000  Level Memphis Center
Tue 06:57:57 PM 32.7667 -89.4606 246° West 390 449 36,000  Level Memphis Center
Tue 06:58:57 PM 32.7236 -89.5819 247° West 397 457 36,000  Level Memphis Center
Tue 06:59:57 PM 32.6786 -89.6983 245° Southwest 397 457 36,000  Level Memphis Center
Tue 07:00:57 PM 32.6331 -89.8194 246° West 397 457 36,000  Level Memphis Center
Tue 07:01:57 PM 32.5897 -89.9406 247° West 397 457 36,000  Level Memphis Center
Tue 07:02:58 PM 32.5464 -90.0617 247° West 397 457 36,000  Level Memphis Center
Tue 07:03:57 PM 32.5006 -90.1800 245° Southwest 397 457 36,000  Level Memphis Center
Tue 07:04:57 PM 32.4403 -90.2908 237° Southwest 397 457 36,000  Level Memphis Center
Tue 07:05:57 PM 32.3839 -90.4017 239° Southwest 397 457 36,000  Level Memphis Center
Tue 07:06:57 PM 32.3275 -90.5097 238° Southwest 397 457 36,000  Level Memphis Center
Tue 07:07:57 PM 32.2686 -90.6250 239° Southwest 403 464 36,000  Level Memphis Center
Tue 07:08:57 PM 32.2100 -90.7331 237° Southwest 403 464 36,000  Level Memphis Center
Tue 07:09:57 PM 32.1533 -90.8431 239° Southwest 403 464 36,000  Level Memphis Center
Tue 07:11:13 PM 32.0928 -90.9622 239° Southwest 399 459 36,000  Level Houston Center
Tue 07:12:15 PM 32.0214 -91.0953 238° Southwest 401 461 36,000  Level Houston Center
Tue 07:13:17 PM 31.9603 -91.2067 237° Southwest 402 463 36,000  Level Houston Center
Tue 07:14:19 PM 31.9003 -91.3178 238° Southwest 401 461 36,000  Level Houston Center
Tue 07:15:20 PM 31.8108 -91.3894 214° Southwest 396 456 36,000  Level Houston Center
Tue 07:16:22 PM 31.6975 -91.3953 183° South 404 465 36,000  Level Houston Center
Tue 07:17:24 PM 31.5833 -91.3992 182° South 407 468 36,000  Level Houston Center
Tue 07:18:25 PM 31.4711 -91.4022 181° South 404 465 36,000  Level Houston Center
Tue 07:19:27 PM 31.3564 -91.4064 182° South 409 471 36,000 -49 Level Houston Center
Tue 07:20:28 PM 31.2169 -91.4122 182° South 414 476 35,900  Descending Houston Center
Tue 07:21:30 PM 31.1017 -91.4136 181° South 414 476 36,000 48 Climbing Houston Center
Tue 07:22:32 PM 30.9983 -91.4553 199° South 397 457 36,000  Level Houston Center
Tue 07:23:33 PM 30.9039 -91.5197 210° Southwest 391 450 36,000  Level Houston Center
Tue 07:24:35 PM 30.8114 -91.5806 209° Southwest 382 440 36,000  Level Houston Center
Tue 07:25:37 PM 30.7197 -91.6406 209° Southwest 376 433 36,000  Level Houston Center
Tue 07:26:38 PM 30.6286 -91.7000 209° Southwest 373 429 36,000  Level Houston Center
Tue 07:27:40 PM 30.5356 -91.7614 210° Southwest 382 440 36,000  Level Houston Center
Tue 07:28:41 PM 30.4278 -91.8317 209° Southwest 373 429 36,000  Level Houston Center
Tue 07:29:43 PM 30.3381 -91.8903 209° Southwest 369 425 36,000  Level Houston Center
Tue 07:30:45 PM 30.2533 -91.9586 215° Southwest 380 437 36,000  Level Houston Center
Tue 07:31:46 PM 30.1933 -92.0433 231° Southwest 380 437 36,000  Level Houston Center
Tue 07:32:48 PM 30.1303 -92.1397 233° Southwest 377 434 36,000  Level Houston Center
Tue 07:33:49 PM 30.0508 -92.2542 231° Southwest 379 436 36,000  Level Houston Center
Tue 07:34:51 PM 29.9864 -92.3519 233° Southwest 381 438 36,000  Level Houston Center
Tue 07:35:52 PM 29.9200 -92.4478 231° Southwest 383 441 36,000  Level Houston Center
Tue 07:36:54 PM 29.8544 -92.5433 232° Southwest 379 436 36,000  Level Houston Center
Tue 07:37:56 PM 29.7886 -92.6375 231° Southwest 377 434 36,000  Level Houston Center
Tue 07:38:57 PM 29.7239 -92.7311 231° Southwest 375 432 36,000 -49 Level Houston Center
Tue 07:39:59 PM 29.6867 -92.8464 250° West 396 456 35,900 -439 Descending Houston Center
Tue 07:41:00 PM 29.6667 -92.9719 260° West 400 460 35,100 -1,366 Descending Houston Center
Tue 07:42:02 PM 29.6464 -93.1044 260° West 416 479 33,100 -2,341 Descending Houston Center
Tue 07:43:03 PM 29.6203 -93.2658 259° West 427 491 30,300 -2,488 Descending Houston Center
Tue 07:44:05 PM 29.5981 -93.3981 259° West 425 489 28,000 -2,244 Descending Houston Center
Tue 07:45:06 PM 29.5769 -93.5308 260° West 423 487 25,700 -2,244 Descending Houston Center
Tue 07:46:08 PM 29.5556 -93.6636 260° West 423 487 23,400 -2,195 Descending Houston Center
Tue 07:47:09 PM 29.5342 -93.7953 259° West 421 484 21,200 -2,098 Descending Houston Center
Tue 07:48:11 PM 29.5186 -93.9194 262° West 408 470 19,100 -2,182 Descending Houston Center
Tue 07:48:59 PM 29.5197 -94.0322 271° West 394 453 17,200 -2,164 Descending Houston Center
Tue 07:50:13 PM 29.5264 -94.1828 273° West 383 441 14,700 -2,089 Descending Houston Center
Tue 07:51:14 PM 29.5306 -94.3072 272° West 376 433 12,500 -2,066 Descending Houston Center
Tue 07:52:15 PM 29.5650 -94.4206 289° West 369 425 10,500 -1,180 Descending Houston Center
Tue 07:53:16 PM 29.6089 -94.5253 296° West 370 426 10,100 -192 Descending Houston Center
Tue 07:54:20 PM 29.6536 -94.6261 297° West 367 422 10,100  Level Houston Center
Tue 07:55:22 PM 29.6986 -94.7325 296° West 371 427 10,100 -106 Level Houston Center
Tue 07:56:13 PM 29.7392 -94.8289 296° West 296 341 9,900 -1,018 Descending Houston Center
Tue 07:57:14 PM 29.7744 -94.9111 296° West 284 327 8,200 -1,672 Descending Houston Center
Tue 07:58:15 PM 29.8097 -94.9958 296° West 285 328 6,500 -1,033 Descending Houston Center
Tue 07:59:16 PM 29.8422 -95.0736 296° West 277 319 6,100 -197 Descending Houston Center
Tue 08:00:17 PM 29.8772 -95.1561 296° West 271 312 6,100  Level Houston Center
Tue 08:01:18 PM 29.8992 -95.2353 288° West 267 307 6,100  Level Houston Center
Tue 08:02:19 PM 29.8992 -95.3247 270° West 274 315 6,100 -52 Level Houston Center
Tue 08:03:14 PM 29.9003 -95.4064 271° West 283 326 6,000 -79 Descending Houston Center
Tue 08:03:35 PM 29.9058 -95.4186 298° West 280 322 6,000  Level Houston Center
Tue 08:04:15 PM 29.9639 -95.4350 346° North 263 303 6,000 98 Level Houston Center
Tue 08:04:36 PM 29.9869 -95.4344 North 256 295 6,100  Climbing Houston Center
Tue 08:05:16 PM 30.0242 -95.4300 North 197 227 6,000 -290 Descending Houston Center
Tue 08:05:38 PM 30.0439 -95.4294 North 207 238 5,800 -885 Descending Houston Center
Tue 08:06:17 PM 30.0797 -95.4403 345° North 215 247 5,100 -1,082 Descending Houston Center
Tue 08:06:39 PM 30.0903 -95.4594 302° West 212 244 4,700 -896 Descending Houston Center
Tue 08:07:24 PM 30.1025 -95.5053 287° West 198 228 4,100 -677 Descending Houston Center
Tue 08:07:41 PM 30.1058 -95.5200 285° West 205 236 4,000 -896 Descending Houston Center
Tue 08:08:31 PM 30.0725 -95.5475 216° Southwest 182 209 3,100 -486 Descending Houston Center
Tue 08:09:32 PM 30.0375 -95.5081 136° Southeast 188 216 3,100 -492 Level Houston Center
Tue 08:10:33 PM 30.0097 -95.4561 122° Southeast 181 208 2,100 -984 Descending Houston Center

Login

Don't have an account? Register now (free) for customized features, flight alerts, and more!